Time;durP1;ratioP1;P1;durP2;ratioP2;P2;SDS_P1;SDS_P2;PMS_P1;PMS_P2;Temp;Humidity;BMP_temperature;BMP_pressure;BME280_temperature;BME280_humidity;BME280_pressure;Samples;Min_cycle;Max_cycle;Signal;HPM_P1;HPM_P2
2023/10/25 00:02:12;;;;;;;17.48;13.48;;;;;;;11.77;79.77;100271.38;7390276;19;20086;-68
2023/10/25 00:04:40;;;;;;;17.25;13.38;;;;;;;11.84;79.31;100271.72;7391551;19;20031;-68
2023/10/25 00:07:07;;;;;;;19.38;14.60;;;;;;;11.87;79.23;100269.63;7391968;19;20022;-68
2023/10/25 00:09:35;;;;;;;18.85;14.20;;;;;;;11.81;79.57;100264.81;7387086;19;20017;-68
2023/10/25 00:12:03;;;;;;;19.15;14.45;;;;;;;11.80;79.53;100270.28;7391812;19;20350;-69
2023/10/25 00:14:31;;;;;;;17.60;14.00;;;;;;;11.74;79.49;100261.00;7391778;19;20551;-68
2023/10/25 00:16:58;;;;;;;17.65;13.90;;;;;;;11.77;79.46;100259.91;7390731;19;20018;-68
2023/10/25 00:19:26;;;;;;;18.20;13.85;;;;;;;11.85;79.46;100263.59;7389577;19;20014;-69
2023/10/25 00:21:54;;;;;;;18.67;14.52;;;;;;;11.87;78.93;100261.69;7390692;19;20027;-67
2023/10/25 00:24:21;;;;;;;17.75;13.60;;;;;;;11.91;78.79;100267.56;7391308;19;20015;-67
2023/10/25 00:26:49;;;;;;;17.08;13.07;;;;;;;11.91;78.98;100267.56;7391679;19;20010;-68
2023/10/25 00:29:17;;;;;;;17.42;13.77;;;;;;;11.95;78.62;100274.28;7386639;19;20372;-66
2023/10/25 00:31:45;;;;;;;16.38;13.43;;;;;;;11.95;78.37;100280.41;7391100;19;20014;-66
2023/10/25 00:34:12;;;;;;;18.83;14.52;;;;;;;11.86;78.66;100278.53;7391060;19;20019;-67
2023/10/25 00:36:43;;;;;;;16.27;13.20;;;;;;;11.85;78.71;100279.53;7391351;19;20015;-66
2023/10/25 00:39:10;;;;;;;19.45;15.05;;;;;;;11.73;79.35;100279.72;7386479;19;20018;-67
2023/10/25 00:41:38;;;;;;;17.70;13.90;;;;;;;11.74;79.31;100281.41;7389288;19;20011;-66
2023/10/25 00:44:06;;;;;;;17.33;13.48;;;;;;;11.72;79.08;100284.19;7390538;19;20019;-66
2023/10/25 00:46:33;;;;;;;19.13;14.40;;;;;;;11.69;79.42;100287.09;7398193;19;20082;-66
2023/10/25 00:49:01;;;;;;;18.15;13.00;;;;;;;11.68;79.53;100288.09;7397886;19;20037;-66
2023/10/25 00:51:30;;;;;;;19.40;14.38;;;;;;;11.70;79.09;100291.44;7397826;19;20027;-66
2023/10/25 00:54:02;;;;;;;18.38;14.88;;;;;;;11.68;79.31;100294.22;7400941;19;20029;-66
2023/10/25 00:56:31;;;;;;;17.63;13.73;;;;;;;11.77;78.85;100295.25;7397539;19;20029;-66
2023/10/25 00:58:59;;;;;;;20.20;14.18;;;;;;;11.73;78.92;100283.22;7395940;19;20011;-66
2023/10/25 01:01:28;;;;;;;17.23;12.68;;;;;;;11.61;79.81;100277.16;7393620;19;20021;-66
2023/10/25 01:03:56;;;;;;;17.38;13.27;;;;;;;11.65;79.47;100277.72;7397143;19;20018;-66
2023/10/25 01:06:24;;;;;;;18.40;13.18;;;;;;;11.66;79.32;100279.41;7397354;19;20030;-66
2023/10/25 01:08:52;;;;;;;18.40;13.77;;;;;;;11.70;79.15;100272.88;7394212;19;20026;-66
2023/10/25 01:11:20;;;;;;;19.42;14.65;;;;;;;11.67;79.03;100268.66;7395982;19;20085;-66
2023/10/25 01:13:47;;;;;;;17.80;13.80;;;;;;;11.62;79.23;100268.22;7395884;19;20018;-69
2023/10/25 01:16:15;;;;;;;18.10;13.85;;;;;;;11.71;78.79;100271.88;7397217;19;20470;-69
2023/10/25 01:18:43;;;;;;;17.67;13.40;;;;;;;11.66;79.12;100272.28;7396309;19;20027;-68
2023/10/25 01:21:11;;;;;;;18.02;13.45;;;;;;;11.71;79.00;100264.78;7394800;19;20379;-69
2023/10/25 01:23:39;;;;;;;17.77;13.70;;;;;;;11.73;78.77;100267.31;7397326;19;20025;-69
2023/10/25 01:26:06;;;;;;;18.63;14.02;;;;;;;11.67;78.81;100265.16;7395203;19;20568;-69
2023/10/25 01:28:34;;;;;;;18.85;13.82;;;;;;;11.68;78.89;100259.75;7396182;19;20028;-69
2023/10/25 01:31:02;;;;;;;16.33;12.93;;;;;;;11.67;78.89;100259.84;7395154;19;20496;-69
2023/10/25 01:33:30;;;;;;;17.52;13.52;;;;;;;11.64;78.71;100255.69;7396784;19;20033;-67
2023/10/25 01:35:57;;;;;;;18.33;13.05;;;;;;;11.63;78.99;100253.97;7396354;19;20082;-68
2023/10/25 01:38:25;;;;;;;18.95;13.85;;;;;;;11.65;79.15;100253.88;7395583;19;20022;-69
2023/10/25 01:40:52;;;;;;;19.20;12.88;;;;;;;11.65;79.03;100259.16;7394915;19;20026;-67
2023/10/25 01:43:21;;;;;;;17.70;13.35;;;;;;;11.68;78.82;100256.25;7396649;19;20018;-67
2023/10/25 01:45:49;;;;;;;18.38;13.88;;;;;;;11.69;78.59;100257.94;7395036;19;20022;-67
2023/10/25 01:48:17;;;;;;;18.58;13.20;;;;;;;11.63;78.83;100251.31;7395577;19;20019;-67
2023/10/25 01:50:44;;;;;;;18.38;13.30;;;;;;;11.60;79.25;100258.69;7394973;19;20014;-66
2023/10/25 01:53:12;;;;;;;18.73;13.45;;;;;;;11.67;78.92;100265.16;7395944;19;20035;-66
2023/10/25 01:55:40;;;;;;;16.40;12.45;;;;;;;11.67;78.72;100260.69;7395162;19;20035;-68
2023/10/25 01:58:08;;;;;;;19.33;13.43;;;;;;;11.66;78.59;100263.50;7394068;19;20494;-66
2023/10/25 02:00:39;;;;;;;17.83;12.80;;;;;;;11.59;78.72;100257.03;7394758;19;20648;-66
2023/10/25 02:03:06;;;;;;;17.55;13.38;;;;;;;11.56;78.77;100262.59;7393142;19;20018;-67
2023/10/25 02:05:34;;;;;;;17.90;12.55;;;;;;;11.53;78.78;100257.56;7395614;19;20423;-67
2023/10/25 02:08:02;;;;;;;17.65;13.07;;;;;;;11.45;79.03;100258.22;7395487;19;20031;-67
2023/10/25 02:10:30;;;;;;;18.42;12.90;;;;;;;11.51;78.96;100268.28;7394008;19;20015;-67
2023/10/25 02:12:57;;;;;;;18.92;12.48;;;;;;;11.46;79.00;100268.69;7394647;19;20015;-67
2023/10/25 02:15:25;;;;;;;18.05;12.75;;;;;;;11.48;79.09;100263.25;7395164;19;20019;-67
2023/10/25 02:17:53;;;;;;;17.23;12.98;;;;;;;11.47;78.78;100256.28;7393364;19;20018;-67
2023/10/25 02:20:21;;;;;;;20.17;13.73;;;;;;;11.41;79.21;100264.78;7393453;19;20491;-67
2023/10/25 02:22:48;;;;;;;19.02;11.82;;;;;;;11.35;79.24;100263.47;7393567;19;20022;-69
2023/10/25 02:25:16;;;;;;;19.80;13.30;;;;;;;11.39;79.10;100264.88;7395217;19;20010;-68
2023/10/25 02:27:44;;;;;;;19.75;12.30;;;;;;;11.40;79.11;100258.59;7394908;19;20014;-68
2023/10/25 02:30:12;;;;;;;18.55;12.23;;;;;;;11.43;78.86;100258.34;7393428;19;20027;-68
2023/10/25 02:32:39;;;;;;;19.20;13.00;;;;;;;11.48;78.82;100255.28;7394974;19;20039;-69
2023/10/25 02:35:07;;;;;;;18.05;12.48;;;;;;;11.47;78.56;100261.56;7393452;19;20019;-69
2023/10/25 02:37:35;;;;;;;17.95;12.30;;;;;;;11.39;78.91;100258.75;7392528;19;20014;-69
2023/10/25 02:40:04;;;;;;;17.25;12.50;;;;;;;11.39;78.84;100258.75;7391177;19;20490;-69
2023/10/25 02:42:31;;;;;;;20.15;12.38;;;;;;;11.40;78.63;100258.59;7393199;19;20033;-69
2023/10/25 02:44:59;;;;;;;17.33;12.63;;;;;;;11.34;78.96;100253.00;7393767;19;20014;-69
2023/10/25 02:47:27;;;;;;;16.17;11.75;;;;;;;11.32;79.10;100247.81;7394712;19;20078;-70
2023/10/25 02:49:54;;;;;;;17.65;12.85;;;;;;;11.32;78.99;100246.97;7391754;19;20033;-70
2023/10/25 02:52:22;;;;;;;16.70;12.10;;;;;;;11.35;78.68;100244.06;7394027;19;20030;-70
2023/10/25 02:54:49;;;;;;;18.58;12.48;;;;;;;11.25;79.17;100246.66;7393743;19;20355;-69
2023/10/25 02:57:17;;;;;;;18.23;13.00;;;;;;;11.24;79.06;100242.31;7392456;19;20015;-69
2023/10/25 02:59:45;;;;;;;16.33;11.23;;;;;;;11.30;79.05;100239.16;7391082;19;20046;-69
2023/10/25 03:02:13;;;;;;;17.38;12.55;;;;;;;11.32;78.55;100237.22;7392616;19;20399;-69
2023/10/25 03:04:40;;;;;;;17.75;12.38;;;;;;;11.34;78.38;100237.94;7393735;19;20075;-69
2023/10/25 03:07:08;;;;;;;18.48;12.18;;;;;;;11.29;78.35;100242.75;7394019;19;20367;-69
2023/10/25 03:09:36;;;;;;;17.00;11.60;;;;;;;11.31;78.71;100234.69;7387850;19;20161;-65
2023/10/25 03:12:04;;;;;;;16.55;11.75;;;;;;;11.33;78.35;100241.56;7393447;19;20035;-65
2023/10/25 03:14:32;;;;;;;16.20;11.98;;;;;;;11.33;78.40;100235.41;7393382;19;20018;-65
2023/10/25 03:17:00;;;;;;;15.95;11.07;;;;;;;11.31;78.33;100232.88;7393014;19;20034;-66
2023/10/25 03:19:29;;;;;;;18.45;12.45;;;;;;;11.33;78.25;100228.31;7388861;19;20027;-66
2023/10/25 03:21:58;;;;;;;16.13;11.65;;;;;;;11.36;78.20;100224.53;7392789;19;20033;-64
2023/10/25 03:24:25;;;;;;;17.20;11.50;;;;;;;11.34;78.07;100232.63;7393067;19;20352;-65
2023/10/25 03:26:54;;;;;;;21.35;12.65;;;;;;;11.32;78.15;100226.59;7392372;19;20022;-65
2023/10/25 03:29:21;;;;;;;17.80;12.13;;;;;;;11.26;78.12;100223.66;7390386;19;20051;-61
2023/10/25 03:31:50;;;;;;;18.08;12.20;;;;;;;11.18;78.12;100225.16;7392638;19;20639;-63
2023/10/25 03:34:18;;;;;;;18.25;12.18;;;;;;;11.15;78.63;100222.75;7392465;19;20043;-63
2023/10/25 03:36:46;;;;;;;17.38;11.43;;;;;;;11.11;78.54;100225.78;7392442;19;20039;-63
2023/10/25 03:39:15;;;;;;;18.13;11.98;;;;;;;11.11;78.73;100225.78;7390112;19;20019;-64
2023/10/25 03:41:43;;;;;;;17.15;11.48;;;;;;;11.10;78.66;100226.75;7392517;19;20018;-63
2023/10/25 03:44:12;;;;;;;19.55;12.35;;;;;;;11.05;78.45;100223.66;7394659;19;20018;-65
2023/10/25 03:46:40;;;;;;;17.52;12.13;;;;;;;11.01;78.66;100216.94;7392829;19;20051;-65
2023/10/25 03:49:07;;;;;;;18.45;12.50;;;;;;;10.99;78.55;100230.31;7391483;19;20023;-65
2023/10/25 03:51:35;;;;;;;16.27;11.45;;;;;;;11.11;78.39;100218.69;7391887;19;20551;-64
2023/10/25 03:54:03;;;;;;;18.25;11.38;;;;;;;11.08;78.17;100218.09;7391502;19;20079;-64
2023/10/25 03:56:30;;;;;;;16.55;11.85;;;;;;;11.05;78.42;100219.19;7391636;19;20022;-65
2023/10/25 03:58:58;;;;;;;19.65;12.68;;;;;;;11.04;78.16;100214.88;7391156;19;20093;-64
2023/10/25 04:01:25;;;;;;;16.90;11.60;;;;;;;11.04;78.56;100211.38;7390579;19;20023;-67
2023/10/25 04:03:53;;;;;;;16.42;11.13;;;;;;;11.05;78.61;100218.34;7388746;19;20046;-65
2023/10/25 04:06:21;;;;;;;17.38;12.20;;;;;;;11.10;78.02;100213.50;7391946;19;20029;-66
2023/10/25 04:08:48;;;;;;;16.85;11.57;;;;;;;11.06;78.01;100214.72;7388757;19;20043;-66
2023/10/25 04:11:16;;;;;;;17.25;12.05;;;;;;;11.09;77.96;100215.31;7388892;19;20015;-66
2023/10/25 04:13:44;;;;;;;17.50;11.38;;;;;;;11.07;78.01;100211.97;7391691;19;20019;-65
2023/10/25 04:16:11;;;;;;;17.90;11.35;;;;;;;11.13;77.83;100214.06;7391130;19;20494;-64
2023/10/25 04:18:39;;;;;;;18.02;12.48;;;;;;;11.12;77.66;100219.53;7390372;19;20088;-64
2023/10/25 04:21:12;;;;;;;17.67;11.20;;;;;;;11.05;77.90;100202.47;7394587;19;20018;-65
2023/10/25 04:23:39;;;;;;;18.73;12.02;;;;;;;10.99;78.23;100209.13;7396179;19;20501;-65
2023/10/25 04:26:12;;;;;;;18.42;12.18;;;;;;;11.00;77.96;100212.63;7397451;19;20018;-67
2023/10/25 04:28:42;;;;;;;18.38;12.60;;;;;;;10.93;78.53;100213.13;7397146;19;20086;-65
2023/10/25 04:31:11;;;;;;;17.75;11.73;;;;;;;10.96;78.30;100204.91;7397558;19;20362;-66
2023/10/25 04:33:39;;;;;;;18.58;12.30;;;;;;;10.93;78.38;100204.34;7396798;19;20018;-65
2023/10/25 04:36:07;;;;;;;17.40;11.45;;;;;;;10.95;78.15;100205.03;7397044;19;20030;-67
2023/10/25 04:38:35;;;;;;;15.10;10.68;;;;;;;10.89;78.37;100200.25;7396945;19;20056;-66
2023/10/25 04:41:03;;;;;;;15.00;11.02;;;;;;;10.88;78.43;100207.38;7396779;19;20018;-66
2023/10/25 04:43:30;;;;;;;16.70;11.93;;;;;;;10.79;78.66;100199.34;7395899;19;20023;-67
2023/10/25 04:45:59;;;;;;;16.55;11.40;;;;;;;10.86;78.44;100200.50;7398078;19;20555;-68
2023/10/25 04:48:28;;;;;;;17.80;11.45;;;;;;;10.81;78.64;100197.41;7397412;19;20041;-68
2023/10/25 04:50:55;;;;;;;17.75;11.88;;;;;;;10.83;78.42;100196.31;7396777;19;20018;-67
2023/10/25 04:53:23;;;;;;;18.02;11.93;;;;;;;10.77;78.65;100198.66;7390414;19;20015;-68
2023/10/25 04:55:50;;;;;;;18.35;11.88;;;;;;;10.85;78.55;100198.84;7402118;19;20508;-67
2023/10/25 04:58:19;;;;;;;15.57;11.02;;;;;;;10.78;78.71;100205.63;7396429;19;20018;-67
2023/10/25 05:00:46;;;;;;;17.35;11.98;;;;;;;10.78;78.64;100208.25;7396833;19;20025;-67
2023/10/25 05:03:14;;;;;;;15.57;10.45;;;;;;;10.81;78.49;100210.66;7396020;19;20043;-68
2023/10/25 05:05:42;;;;;;;16.70;11.02;;;;;;;10.83;78.63;100206.91;7397694;19;20082;-68
2023/10/25 05:08:10;;;;;;;17.67;12.38;;;;;;;10.86;78.32;100206.66;7397079;19;20025;-68
2023/10/25 05:10:38;;;;;;;16.45;11.45;;;;;;;10.86;78.38;100211.09;7395343;19;20362;-68
2023/10/25 05:13:06;;;;;;;17.40;11.35;;;;;;;10.85;78.16;100202.31;7396939;19;20084;-68
2023/10/25 05:15:35;;;;;;;16.63;11.45;;;;;;;10.84;77.98;100205.94;7397118;19;20026;-67
2023/10/25 05:18:03;;;;;;;20.60;12.18;;;;;;;10.84;78.25;100195.34;7396308;19;20018;-67
2023/10/25 05:20:31;;;;;;;16.48;11.05;;;;;;;10.77;78.39;100196.84;7395544;19;20075;-67
2023/10/25 05:23:02;;;;;;;17.52;11.80;;;;;;;10.80;78.45;100193.94;7393393;19;20018;-67
2023/10/25 05:25:30;;;;;;;16.77;11.60;;;;;;;10.80;78.20;100193.94;7396370;19;20015;-67
2023/10/25 05:28:00;;;;;;;15.18;11.32;;;;;;;10.87;78.18;100189.78;7395493;19;20050;-67
2023/10/25 05:30:28;;;;;;;15.48;11.05;;;;;;;10.77;78.31;100196.84;7395346;19;20110;-67
2023/10/25 05:33:01;;;;;;;18.17;12.52;;;;;;;10.71;78.68;100192.03;7394073;19;20022;-68
2023/10/25 05:35:29;;;;;;;17.27;11.30;;;;;;;10.67;78.73;100196.75;7396572;19;20028;-68
2023/10/25 05:37:57;;;;;;;15.38;10.50;;;;;;;10.76;78.51;100197.81;7394075;19;20025;-68
2023/10/25 05:40:26;;;;;;;15.88;11.52;;;;;;;10.74;78.28;100202.38;7395064;19;20056;-68
2023/10/25 05:42:56;;;;;;;18.02;11.48;;;;;;;10.78;78.26;100198.50;7395472;19;20027;-68
2023/10/25 05:45:23;;;;;;;16.30;11.65;;;;;;;10.73;78.65;100198.06;7394738;19;20018;-68
2023/10/25 05:47:51;;;;;;;15.82;11.13;;;;;;;10.73;78.40;100198.06;7395266;19;20357;-68
2023/10/25 05:50:19;;;;;;;15.98;10.60;;;;;;;10.69;78.53;100201.94;7394313;19;20484;-67
2023/10/25 05:52:47;;;;;;;16.30;11.00;;;;;;;10.71;78.70;100199.97;7396543;19;20026;-67
2023/10/25 05:55:15;;;;;;;16.80;11.00;;;;;;;10.76;78.62;100194.28;7395727;19;20010;-67
2023/10/25 05:57:45;;;;;;;15.90;10.85;;;;;;;10.80;78.35;100201.00;7395316;19;20488;-68
2023/10/25 06:00:14;;;;;;;17.17;11.35;;;;;;;10.78;78.23;100198.50;7394748;19;20027;-68
2023/10/25 06:02:43;;;;;;;16.15;10.70;;;;;;;10.74;78.57;100199.72;7394302;19;20019;-68
2023/10/25 06:05:15;;;;;;;16.42;10.95;;;;;;;10.74;78.42;100205.03;7393857;19;20022;-67
2023/10/25 06:07:43;;;;;;;16.30;10.63;;;;;;;10.68;78.48;100200.22;7397820;19;20155;-67
2023/10/25 06:10:12;;;;;;;17.45;10.55;;;;;;;10.69;78.42;100191.34;7393824;19;20015;-67
2023/10/25 06:12:42;;;;;;;15.43;10.55;;;;;;;10.75;78.24;100196.09;7395145;19;20018;-67
2023/10/25 06:15:10;;;;;;;14.55;10.07;;;;;;;10.69;78.48;100194.00;7394620;19;20039;-67
2023/10/25 06:17:38;;;;;;;16.15;10.63;;;;;;;10.70;78.29;100190.38;7394675;19;20047;-67
2023/10/25 06:20:07;;;;;;;13.55;9.23;;;;;;;10.72;78.26;100199.88;7391718;19;20018;-68
2023/10/25 06:22:34;;;;;;;16.85;10.07;;;;;;;10.65;78.75;100193.41;7394116;19;20022;-67
2023/10/25 06:25:05;;;;;;;16.13;10.40;;;;;;;10.70;78.19;100196.50;7394819;19;20022;-68
2023/10/25 06:27:32;;;;;;;16.38;10.35;;;;;;;10.72;78.25;100194.56;7394921;19;20019;-67
2023/10/25 06:30:00;;;;;;;22.08;11.63;;;;;;;10.81;77.68;100205.38;7391152;19;20029;-67
2023/10/25 06:32:28;;;;;;;15.00;10.15;;;;;;;10.81;77.87;100202.72;7394245;19;20495;-67
2023/10/25 06:34:56;;;;;;;12.65;8.95;;;;;;;10.77;78.04;100206.59;7394629;19;20026;-68
2023/10/25 06:37:24;;;;;;;14.23;9.20;;;;;;;10.77;77.99;100201.28;7394200;19;20010;-68
2023/10/25 06:39:52;;;;;;;13.05;8.98;;;;;;;10.76;77.87;100196.94;7391988;19;20340;-68
2023/10/25 06:42:20;;;;;;;15.50;9.82;;;;;;;10.82;78.13;100186.69;7393720;19;20377;-68
2023/10/25 06:44:48;;;;;;;13.10;9.07;;;;;;;10.87;77.51;100187.13;7391921;19;20090;-68
2023/10/25 06:47:15;;;;;;;14.65;9.43;;;;;;;10.86;77.49;100190.75;7392258;19;20023;-68
2023/10/25 06:49:46;;;;;;;13.77;8.15;;;;;;;10.74;78.28;100189.13;7388710;19;20489;-68
2023/10/25 06:52:14;;;;;;;14.55;8.05;;;;;;;10.73;78.28;100190.94;7393845;19;20364;-68
2023/10/25 06:54:42;;;;;;;13.07;8.27;;;;;;;10.75;78.11;100182.88;7392940;19;20011;-68
2023/10/25 06:57:11;;;;;;;14.98;8.73;;;;;;;10.74;78.15;100183.84;7394012;19;20499;-67
2023/10/25 06:59:40;;;;;;;12.65;8.18;;;;;;;10.74;78.38;100186.50;7390650;19;20032;-67
2023/10/25 07:02:27;;;;;;;13.45;8.15;;;;;;;10.84;77.82;100183.94;7394922;19;20038;-68
2023/10/25 07:05:04;;;;;;;13.63;8.48;;;;;;;10.80;78.14;100177.19;7391871;19;20007;-67
2023/10/25 07:07:34;;;;;;;12.68;8.25;;;;;;;10.70;78.69;100191.19;7392945;19;20085;-67
2023/10/25 07:10:03;;;;;;;13.27;7.68;;;;;;;10.67;78.85;100196.75;7388157;19;20718;-68
2023/10/25 07:12:32;;;;;;;17.75;9.02;;;;;;;10.73;78.49;100185.66;7390756;19;20022;-67
2023/10/25 07:15:00;;;;;;;12.70;7.72;;;;;;;10.81;78.38;100185.00;7393323;19;20023;-67
2023/10/25 07:17:28;;;;;;;12.85;8.05;;;;;;;10.87;78.14;100189.78;7392838;19;20065;-67
2023/10/25 07:19:58;;;;;;;13.05;8.02;;;;;;;10.91;77.87;100190.34;7389558;19;20049;-67
2023/10/25 07:22:27;;;;;;;11.60;6.95;;;;;;;10.91;77.99;100193.00;7391273;19;20039;-67
2023/10/25 07:24:57;;;;;;;14.25;7.95;;;;;;;10.96;77.66;100194.31;7391046;19;20022;-67
2023/10/25 07:27:25;;;;;;;14.25;7.40;;;;;;;11.02;77.43;100198.25;7392467;19;20051;-68
2023/10/25 07:29:53;;;;;;;12.65;7.78;;;;;;;11.03;77.49;100197.31;7389608;19;20026;-67
2023/10/25 07:32:21;;;;;;;11.48;7.22;;;;;;;11.12;77.37;100206.28;7388134;19;20074;-68
2023/10/25 07:34:48;;;;;;;12.57;7.20;;;;;;;11.08;77.31;100207.50;7392194;19;20026;-68
2023/10/25 07:37:16;;;;;;;13.38;6.93;;;;;;;11.05;77.50;100207.75;7390972;19;20015;-68
2023/10/25 07:39:44;;;;;;;15.07;7.00;;;;;;;11.07;77.35;100204.00;7389859;19;20046;-68
2023/10/25 07:42:12;;;;;;;10.85;6.30;;;;;;;11.05;77.45;100205.09;7386531;19;20014;-67
2023/10/25 07:44:40;;;;;;;14.55;6.88;;;;;;;11.07;77.57;100203.19;7390149;19;20499;-68
2023/10/25 07:47:08;;;;;;;11.73;6.40;;;;;;;11.01;77.67;100201.03;7390866;19;20018;-68
2023/10/25 07:49:36;;;;;;;11.23;6.60;;;;;;;11.09;78.03;100202.06;7384977;19;20575;-68
2023/10/25 07:52:04;;;;;;;12.38;7.03;;;;;;;11.04;77.96;100198.97;7391684;19;20035;-68
2023/10/25 07:54:31;;;;;;;13.60;6.63;;;;;;;11.12;77.88;100198.31;7390042;19;20523;-68
2023/10/25 07:56:59;;;;;;;12.73;6.70;;;;;;;11.29;77.38;100204.81;7390106;19;20378;-68
2023/10/25 07:59:29;;;;;;;12.50;6.90;;;;;;;11.31;77.44;100203.72;7391522;19;20050;-67
2023/10/25 08:01:57;;;;;;;15.95;6.72;;;;;;;11.33;77.43;100199.16;7391912;19;20018;-67
2023/10/25 08:04:25;;;;;;;12.13;6.45;;;;;;;11.42;77.35;100200.16;7391083;19;20105;-67
2023/10/25 08:06:53;;;;;;;9.75;5.63;;;;;;;11.39;77.18;100197.75;7391141;19;20545;-68
2023/10/25 08:09:21;;;;;;;11.93;6.20;;;;;;;11.45;77.14;100192.78;7388362;19;20381;-67
2023/10/25 08:11:49;;;;;;;10.68;5.53;;;;;;;11.51;77.02;100191.41;7389843;19;20018;-67
2023/10/25 08:14:16;;;;;;;11.52;5.88;;;;;;;11.49;77.12;100187.22;7391083;19;20367;-66
2023/10/25 08:16:45;;;;;;;10.35;5.60;;;;;;;11.62;76.83;100187.81;7391518;19;20018;-67
2023/10/25 08:19:12;;;;;;;8.18;4.95;;;;;;;11.72;76.28;100180.75;7388249;19;20043;-67
2023/10/25 08:21:41;;;;;;;12.35;5.30;;;;;;;11.78;76.34;100182.00;7389639;19;20043;-67
2023/10/25 08:24:09;;;;;;;9.65;5.22;;;;;;;11.83;76.51;100175.38;7390062;19;20018;-67
2023/10/25 08:26:39;;;;;;;9.77;4.57;;;;;;;12.00;76.33;100183.63;7390556;19;20126;-67
2023/10/25 08:29:08;;;;;;;9.43;5.30;;;;;;;11.97;76.15;100183.91;7389722;19;20373;-67
2023/10/25 08:31:37;;;;;;;10.77;4.70;;;;;;;11.94;76.34;100183.22;7389198;19;20015;-68
2023/10/25 08:34:05;;;;;;;10.98;5.38;;;;;;;12.04;76.30;100177.09;7390498;19;20022;-68
2023/10/25 08:36:34;;;;;;;11.48;4.95;;;;;;;12.07;76.25;100171.50;7390391;19;20512;-68
2023/10/25 08:39:02;;;;;;;13.13;5.43;;;;;;;12.11;75.98;100163.13;7389441;19;20112;-68
2023/10/25 08:41:30;;;;;;;10.85;5.15;;;;;;;12.09;76.08;100169.53;7387655;19;20018;-66
2023/10/25 08:43:58;;;;;;;11.63;4.88;;;;;;;12.14;76.15;100168.16;7389141;19;20433;-66
2023/10/25 08:46:28;;;;;;;9.98;4.70;;;;;;;12.17;75.97;100162.59;7390795;19;20070;-66
2023/10/25 08:48:56;;;;;;;10.85;4.85;;;;;;;12.15;76.19;100175.16;7389057;19;20026;-66
2023/10/25 08:51:24;;;;;;;10.80;5.00;;;;;;;12.06;76.17;100170.69;7388579;19;20014;-66
2023/10/25 08:53:54;;;;;;;12.27;5.40;;;;;;;12.11;76.38;100172.91;7390410;19;20090;-66
2023/10/25 08:56:22;;;;;;;11.50;4.95;;;;;;;12.06;76.49;100175.16;7386965;19;20039;-66
2023/10/25 08:58:49;;;;;;;13.43;5.28;;;;;;;11.99;76.88;100174.00;7390011;19;20054;-67
2023/10/25 09:01:18;;;;;;;11.75;4.82;;;;;;;12.03;76.61;100172.75;7389967;19;20055;-67
2023/10/25 09:03:46;;;;;;;10.90;4.63;;;;;;;12.05;76.51;100170.78;7390430;19;20025;-66
2023/10/25 09:06:25;;;;;;;10.75;4.97;;;;;;;12.14;76.11;100164.69;7393789;19;20022;-67
2023/10/25 09:08:59;;;;;;;10.43;4.60;;;;;;;12.12;76.64;100161.31;7397333;19;20018;-67
2023/10/25 09:11:37;;;;;;;9.68;4.82;;;;;;;12.21;76.29;100160.50;7397628;19;20011;-67
2023/10/25 09:14:06;;;;;;;7.55;4.07;;;;;;;12.20;76.15;100162.28;7399315;19;20039;-67
2023/10/25 09:16:34;;;;;;;9.90;4.03;;;;;;;12.32;75.90;100146.22;7398190;19;20082;-67
2023/10/25 09:19:03;;;;;;;11.30;4.40;;;;;;;12.39;76.02;100145.53;7397245;19;20014;-67
2023/10/25 09:21:31;;;;;;;8.88;4.18;;;;;;;12.45;76.00;100146.81;7397481;19;20040;-67
2023/10/25 09:24:02;;;;;;;8.73;3.88;;;;;;;12.59;75.94;100129.59;7397751;19;20022;-67
2023/10/25 09:26:39;;;;;;;9.38;4.95;;;;;;;12.64;75.92;100135.34;7398707;19;20018;-68
2023/10/25 09:29:09;;;;;;;13.35;6.28;;;;;;;12.67;75.73;100138.53;7396111;19;20031;-68
2023/10/25 09:31:37;;;;;;;7.63;3.47;;;;;;;12.62;75.95;100139.94;7398112;19;20043;-68
2023/10/25 09:34:08;;;;;;;9.30;3.88;;;;;;;12.78;75.65;100134.91;7397703;19;20022;-67
2023/10/25 09:36:36;;;;;;;11.15;4.00;;;;;;;12.93;75.67;100132.59;7396690;19;20042;-67
2023/10/25 09:39:05;;;;;;;9.40;4.00;;;;;;;12.97;75.39;100131.34;7395911;19;20491;-68
2023/10/25 09:41:38;;;;;;;9.88;4.80;;;;;;;13.05;75.35;100127.94;7399952;19;20015;-68
2023/10/25 09:44:11;;;;;;;;;;;;;;;12.85;75.78;100124.50;7401094;19;20024;-67
2023/10/25 09:46:42;;;;;;;7.30;3.40;;;;;;;12.87;76.26;100126.06;7398849;19;19918;-67
2023/10/25 09:49:14;;;;;;;10.65;4.40;;;;;;;13.01;75.92;100123.91;7392111;19;20035;-67
2023/10/25 09:51:46;;;;;;;9.52;3.80;;;;;;;13.07;75.31;100118.88;7395538;19;20040;-67
2023/10/25 09:54:18;;;;;;;13.68;4.55;;;;;;;13.08;75.30;100117.03;7396139;19;20043;-65
2023/10/25 09:56:49;;;;;;;11.70;4.00;;;;;;;13.06;75.30;100117.19;7395039;19;20022;-67
2023/10/25 09:59:19;;;;;;;9.82;3.55;;;;;;;13.18;75.32;100109.88;7392928;19;20011;-67
2023/10/25 10:01:47;;;;;;;8.32;3.83;;;;;;;13.25;75.16;100107.50;7395861;19;20043;-67
2023/10/25 10:04:42;;;;;;;7.82;3.47;;;;;;;13.36;74.92;100100.19;7394459;19;20030;-67
2023/10/25 10:07:26;;;;;;;8.98;3.50;;;;;;;13.38;75.06;100100.03;7395238;19;20026;-67
2023/10/25 10:10:22;;;;;;;11.57;3.83;;;;;;;13.44;75.05;100106.59;7391479;19;20043;-67
2023/10/25 10:12:50;;;;;;;10.35;3.40;;;;;;;13.45;75.06;100100.28;7395008;19;20512;-67
2023/10/25 10:15:19;;;;;;;9.45;3.55;;;;;;;13.59;74.77;100099.78;7395127;19;20014;-67
2023/10/25 10:17:47;;;;;;;8.52;3.40;;;;;;;13.71;74.25;100093.28;7393579;19;20019;-67
2023/10/25 10:20:24;;;;;;;8.32;3.53;;;;;;;13.89;73.69;100087.97;7393813;19;20014;-67
2023/10/25 10:23:02;;;;;;;8.98;3.55;;;;;;;13.96;73.43;100085.53;7394704;19;20015;-67
2023/10/25 10:25:46;;;;;;;7.57;3.25;;;;;;;14.01;73.09;100084.09;7393850;19;20014;-67
2023/10/25 10:28:14;;;;;;;9.30;3.50;;;;;;;13.99;73.26;100085.22;7394450;19;20019;-67
2023/10/25 10:30:42;;;;;;;8.52;3.30;;;;;;;14.05;73.32;100084.63;7393460;19;20029;-68
2023/10/25 10:33:12;;;;;;;7.32;3.45;;;;;;;14.11;73.14;100084.84;7396016;19;20077;-67
2023/10/25 10:35:46;;;;;;;11.25;3.78;;;;;;;14.17;72.87;100072.75;7394095;19;20018;-67
2023/10/25 10:38:14;;;;;;;8.73;3.60;;;;;;;14.15;72.77;100067.56;7393775;19;20027;-67
2023/10/25 10:40:42;;;;;;;8.75;3.38;;;;;;;14.26;72.25;100060.34;7392465;19;20399;-67
2023/10/25 10:43:10;;;;;;;7.35;3.13;;;;;;;14.35;72.19;100052.28;7393952;19;20014;-67
2023/10/25 10:45:43;;;;;;;8.13;3.15;;;;;;;14.45;72.00;100046.84;7392506;19;20014;-67
2023/10/25 10:48:11;;;;;;;;;;;;;;;14.21;72.52;100049.31;7392256;19;20030;-67
2023/10/25 10:50:42;;;;;;;8.82;3.13;;;;;;;14.17;73.15;100046.13;7391219;19;20345;-67
2023/10/25 10:53:10;;;;;;;9.35;3.20;;;;;;;14.25;72.61;100051.53;7392146;19;20019;-67
2023/10/25 10:55:37;;;;;;;9.73;3.25;;;;;;;14.30;72.49;100051.88;7390968;19;20365;-67
2023/10/25 10:58:05;;;;;;;10.52;3.63;;;;;;;14.29;72.51;100044.06;7393179;19;20018;-67
2023/10/25 11:00:35;;;;;;;10.25;3.30;;;;;;;14.28;72.34;100051.22;7391406;19;20019;-67
2023/10/25 11:03:03;;;;;;;13.27;3.45;;;;;;;14.31;72.24;100044.75;7392937;19;20018;-67
2023/10/25 11:05:37;;;;;;;8.07;2.90;;;;;;;14.29;72.13;100049.38;7390466;19;20015;-67
2023/10/25 11:08:10;;;;;;;6.60;3.03;;;;;;;14.37;71.91;100041.44;7393268;19;20022;-67
2023/10/25 11:10:38;;;;;;;10.20;2.78;;;;;;;14.32;72.03;100036.59;7391913;19;20019;-67
2023/10/25 11:13:09;;;;;;;6.18;2.95;;;;;;;14.37;72.24;100028.97;7393560;19;20022;-67
2023/10/25 11:15:38;;;;;;;11.38;3.10;;;;;;;14.38;72.55;100033.31;7393436;19;20381;-67
2023/10/25 11:18:09;;;;;;;9.07;2.95;;;;;;;14.42;72.52;100033.00;7392909;19;20088;-67
2023/10/25 11:20:39;;;;;;;6.90;2.88;;;;;;;14.38;72.81;100024.47;7391540;19;20022;-67
2023/10/25 11:23:08;;;;;;;7.22;2.75;;;;;;;14.35;72.87;100019.47;7390895;19;20091;-67